Quick Links (Output Below):   Max & Min Temps   /   Climate Reports   /   Zone Forecasts
River Forecasts   /   Forestry Forecasts   /   Aviation Forecasts   /   Radars   /   Features

Terminal Aerodrome Forecast (Monticello)

Pick a Site:
Arkadelphia | El Dorado | Fayetteville | Fort Smith | Harrison | Highfill | Hot Springs | Jonesboro
Little Rock | Monticello | Mountain Home | Pine Bluff | Texarkana
 Forecast 

KLLQ 221135Z 2212/2312 00000KT P6SM SKC
     FM221500 05007KT P6SM SKC
     FM230000 04003KT P6SM SCT250=


 Latest METARs (Observations) 
How to Decode METARs
14Z KLLQ 221353Z AUTO 05006KT 10SM CLR 14/10 A3020 RMK AO2 SLP225
         T01390100
         
13Z KLLQ 221253Z AUTO 05004KT 10SM CLR 11/09 A3017 RMK AO2 SLP213
         T01060089
         
12Z KLLQ 221153Z AUTO 05004KT 10SM CLR 10/08 A3015 RMK AO2 SLP207
         T01000083 10128 20089 53015
         
11Z KLLQ 221053Z AUTO 00000KT 10SM CLR 11/08 A3013 RMK AO2 SLP201
         T01060083
         
10Z KLLQ 220953Z AUTO 00000KT 10SM CLR 11/09 A3011 RMK AO2 SLP192
         T01110094
         
09Z KLLQ 220853Z AUTO 00000KT 10SM CLR 11/09 A3010 RMK AO2 SLP192
         T01060094 51006
         
08Z KLLQ 220753Z AUTO 00000KT 10SM CLR 11/09 A3010 RMK AO2 SLP191
         T01060094
         
07Z KLLQ 220653Z AUTO 00000KT 10SM CLR 12/11 A3010 RMK AO2 SLP190
         T01170106
         
06Z KLLQ 220553Z AUTO 00000KT 10SM CLR 13/11 A3009 RMK AO2 SLP185
         60000 T01280111 10183 20122 402670122 50000
         
05Z KLLQ 220453Z AUTO 00000KT 10SM CLR 14/12 A3009 RMK AO2 SLP186
         T01390117
         
***** Today's Observations (Above) *****


Back to Main Page
http://www.srh.noaa.gov/lzk/qfcst.php

USA.gov is the U.S. government's official web portal to all federal, state and local government web resources and services.